LTFC

Süleyman Demirel International Airport

Isparta, Turkey
TAF LTFC 182240Z 1900/1924 VRB02KT 9999 SCT035 BKN100
Issued Valid From Valid To
Jan-18 @ 22:40 UTC
(4 hours ago)
Jan-19 @ 00:00 UTC
(2 hours ago)
Jan-20 @ 00:00 UTC
(in 22 hours)
Jan-19 @ 00:00 to Jan-20 @ 00:00
TAF LTFC 182240Z 1900/1924 VRB02KT 9999 SCT035 BKN100
Wind Visibility Clouds
Variable at 2 knots 10,000+ meters
  • Scattered at 3,500' AGL
  • Broken at 10,000' AGL
TAF LTFC 182240Z 1900/1924 VRB02KT 9999 SCT035 BKN100
Issued Jan-18 @ 22:40 UTC
(4 hours ago)
Valid From Jan-19 @ 00:00 UTC
(2 hours ago)
Valid To Jan-20 @ 00:00 UTC
(in 22 hours)
Jan-19 @ 00:00 - Jan-20 @ 00:00
Wind Visibility
Variable at 2 knots 10,000+ meters
Clouds
  • Scattered at 3,500' AGL
  • Broken at 10,000' AGL